В дополнение к обычной сводке METAR и TAF многие военные аэродромы в метеорологической сводке могут использовать цветовой код, обозначенный словом на английском языке.

Цветные коды военных аэродромов в метеосводках

Этот цветовой код является одной из форм сокращение для экипажей и дополнительно акцентирует внимание на основной информации в сообщении.

Примечание 1: Любой код, за исключением ГОЛУБОГО и БЕЛОГО может указывать на наличие серьезных проблем.

Примечание 2: Даже БЕЛЫЙ код не является гарантией, что погода хорошая, даже во время доклада.




 

Значения цветов

Цветовой код Минимальная высота (относительная) нижней кромки облаков в районе аэродрома
Минимальная видимость
BLUE (Голубой) 2500 ft 8 км
WHITE (Белый) 1500 ft 5 км
GREEN (Зеленый) 700 ft 3700 м
YELLOW (Желтый) 300 ft 1600 м
AMBER (Оранжевый) 200 ft 800 м
RED (Красный) менее 200 ft, или сплошная облачность менее 800 м
BLACK (Черный) Аэродром закрыт по каким-либо причинам, не связанным со значениями нижней кромки облаков и видимости.

 

Примеры сводок:

OAKB 071150Z 09004KT 9999 SCT080 28/M02 Q1010 NOSIG RMK BLU BLU

METAR text: OAKB 071150Z 09004KT 9999 SCT080 28/M02 Q1010 NOSIG RMK BLU BLU
Conditions at: OAKB (KABUL INTL (MIL), AF) observed 1150 UTC 07 June 2012
Temperature: 28.0°C (82°F)
Dewpoint: -2.0°C (28°F) [RH = 14%]
Pressure (altimeter): 29.82 inches Hg (1010.0 mb)
Winds: from the E (90 degrees) at 5 MPH (4 knots; 2.1 m/s)
Visibility: 6 or more miles (10+ km)
Ceiling: at least 12,000 feet AGL
Clouds: scattered clouds at 8000 feet AGL
Weather: no significant weather observed at this time

 

 

OAKN 071250Z 27013KT 9000 HZ CLR 37/M07 A2962 RMK SLP993 WND DATA ESTMD ALSTG/SLP ESTMD Q1003 DA6900 RH06 BLU BLU

METAR text: OAKN 071250Z 27013KT 9000 HZ CLR 37/M07 A2962 RMK SLP993 WND DATA ESTMD ALSTG/SLP ESTMD Q1003 DA6900 RH06 BLU BLU
Conditions at: OAKN (KANDAHAR INTL AR, AF) observed 1250 UTC 07 June 2012
Temperature: 37.0°C (99°F)
Dewpoint: -7.0°C (19°F) [RH = 6%]
Pressure (altimeter): 29.62 inches Hg (1003.1 mb)
[Sea-level pressure: 999.3 mb]
Winds: from the W (270 degrees) at 15 MPH (13 knots; 6.8 m/s)
Visibility: 6 miles (9 km)
Ceiling: at least 12,000 feet AGL
Clouds: sky clear below 12,000 feet AGL
Weather: HZ (haze)

Добавить комментарий

     

Защитный код
Обновить


      Как найти в Интернете похожую картинку или фотографию
      Как найти в Интернете похожую картинку или фотографию

      Как найти в Интернете похожую картинку или фотографию? - Да очень просто! Начнем с того, зачем это нужно, и кому может понадобиться? Основных вариантов может быть три: Первый - вы хотите проверить, не использует ли кто-то вашу авторскую графическую работу (фотографию, рисунок, схему) без вашего разрешения на своем web-ресурсе.




      Авиакомпания Monarch Airlines выбрала Flightman EFB
      Авиакомпания Monarch Airlines выбрала Flightman EFB

      Авиакомпания Monarch Airlines (Великобритания) выбрала программу производства фирмы Flightman для использования в своих Electronic Flight Bag (EFB) , чтобы обеспечить летные экипажи аэронавигационной информацией в рамках повышения эффективности работы и снижения затрат. В июле 2011 года авиакомпания Monarch Airlines подтвердила, что она будет устанавливать комплекс программного обеспечения от Flightman в свои EFB для всего их парка воздушных судов. Авиакомпания Monarch Airlines изначально использовала в...




      Огни статуса ВПП - Runway Status Lights
      Огни статуса ВПП - Runway Status Lights

      20 октября 2014 года в аэропорту Москва Внуково произошла авиакатастрофа с самолетом Falcon 50EX французской авиакомпании UniJet (регистрационный номер F-GLSA). При выполнении взлета ночью в сложных метеоусловиях воздушное судно столкнулось со снегоочистителем, совершившим несанкционированный выезд на ВПП. Конечно же было проведено тщательное расследование данного происшествия, были определены все причины -...




      Как отключить стандартную оболочку в навигаторе EXPLAY PN-355
      Как отключить стандартную оболочку в навигаторе EXPLAY PN-355

      Все автомобильные GPS-навигаторы имеют меню с достаточного размера кнопками на сенсорном экране для выстрого запуска необходимых приложений, в первую очередь - программы для непосредственной навигации. Многие современные навигаторы имеют возможность менять путь к навигационной программе. Поэтому при установке альтернативного ПО есть возможность безболезненно через настройки меню задать временно или...




      Внедрение системы ADS-B в Австралии
      Внедрение системы ADS-B в Австралии

      Австралийские авиакомпании считаются самыми безопасными в мире благодаря авиакомпании Qantas Airways, у которой с 1973 года не зафиксировано ни одного случая, повлекшего человеческие жертвы! Привыкнув быть лидерами во всем, австралийцы анонсировали новые изменения в правилах полетов в воздушном пространстве Австралии. С 12 декабря 2013 года Австралия вводит новое требования: все воздушные суда, в...




      Microsoft Word предсказал терракт 11 сентября!
      Microsoft Word предсказал терракт 11 сентября!

      11 сентября 2001 года два гражданских самолета врезались в башни Всемирного торгового центра в Нью Йорке. После чего башни-близнецы загорелись и через несколько часов рухнули, полностью развалившись на части... Одни (в том числе и американское правительство) считают Алькаиду виновной в этом терракте, другие подозревают в случившемся диверсию американской власти и американских спецслужб...




      iPad или Android?
      iPad или Android?

      Не так давно заглянул я в один из крупных магазинов компьютерной и цифровой техники, имеющийся в нашем городе. Зашел я туда просто из любопытства - посмотреть представленный ассортимент в целом и уровень цен - благо, время на это было. В таких магазинах (если нет аншлага) обычно сразу к вам подбегает аккуратный мальчик или девочка с предложением помочь. Чаще всего, как и в этот раз, я...



Яндекс.Метрика